Time;durP1;ratioP1;P1;durP2;ratioP2;P2;SDS_P1;SDS_P2;PMS_P1;PMS_P2;Temp;Humidity;BMP_temperature;BMP_pressure;BME280_temperature;BME280_humidity;BME280_pressure;Samples;Min_cycle;Max_cycle;Signal;HPM_P1;HPM_P2
2022/10/19 00:01:51;;;;;;;6.45;3.10;;;;;;;-140.72;100.00;53007.75;5023429;28;20357;-68
2022/10/19 00:04:20;;;;;;;9.27;3.45;;;;;;;-140.72;100.00;53036.16;5011072;28;20017;-67
2022/10/19 00:06:45;;;;;;;5.90;3.80;;;;;;;-140.72;100.00;53015.88;5017309;28;20202;-69
2022/10/19 00:09:14;;;;;;;9.68;4.07;;;;;;;-140.72;100.00;52997.63;5016615;28;20030;-67
2022/10/19 00:11:43;;;;;;;7.85;4.35;;;;;;;-140.72;100.00;53005.72;5015518;28;20013;-68
2022/10/19 00:14:13;;;;;;;5.78;4.43;;;;;;;-140.72;100.00;52969.19;5018555;28;20025;-68
2022/10/19 00:16:39;;;;;;;5.25;4.28;;;;;;;-140.72;100.00;52985.44;5024052;28;20094;-68
2022/10/19 00:19:10;;;;;;;9.02;5.00;;;;;;;-140.72;100.00;52983.41;5020384;28;20112;-70
2022/10/19 00:21:36;;;;;;;6.78;4.70;;;;;;;-140.72;100.00;53028.06;5017587;28;20066;-71
2022/10/19 00:24:02;;;;;;;5.10;3.78;;;;;;;-140.72;100.00;52995.59;5026769;28;20416;-68
2022/10/19 00:26:27;;;;;;;6.35;4.50;;;;;;;-140.72;100.00;52997.63;5020022;28;20056;-71
2022/10/19 00:28:54;;;;;;;5.25;4.65;;;;;;;-140.72;100.00;52999.66;5025450;28;20145;-69
2022/10/19 00:31:23;;;;;;;5.38;4.25;;;;;;;-140.72;100.00;52965.16;5022239;28;20014;-70
2022/10/19 00:33:52;;;;;;;7.85;5.35;;;;;;;-140.72;100.00;52985.44;5026900;28;20021;-67
2022/10/19 00:36:29;;;;;;;5.93;4.50;;;;;;;-140.72;100.00;52995.59;5026293;28;20040;-68
2022/10/19 00:38:55;;;;;;;4.88;4.03;;;;;;;-140.72;100.00;52975.28;5025108;28;20030;-69
2022/10/19 00:41:27;;;;;;;5.00;4.13;;;;;;;-140.72;100.00;53003.69;5026005;28;20163;-68
2022/10/19 00:44:00;;;;;;;8.52;5.15;;;;;;;-140.72;100.00;52971.22;5024414;28;20100;-68
2022/10/19 00:46:27;;;;;;;4.63;4.07;;;;;;;-140.72;100.00;52963.13;5025364;28;20369;-68
2022/10/19 00:48:58;;;;;;;7.60;4.47;;;;;;;-140.72;100.00;52989.50;5022319;28;20457;-68
2022/10/19 00:51:26;;;;;;;8.93;4.60;;;;;;;-140.72;100.00;53001.66;5021929;28;20036;-68
2022/10/19 00:53:52;;;;;;;7.95;5.47;;;;;;;-140.72;100.00;53011.81;5027098;28;20021;-69
2022/10/19 00:56:17;;;;;;;5.65;4.38;;;;;;;-140.72;100.00;52977.31;5024866;28;20036;-68
2022/10/19 00:58:43;;;;;;;8.32;4.95;;;;;;;-140.72;100.00;52979.34;5025958;28;20117;-68
2022/10/19 01:01:14;;;;;;;8.32;5.03;;;;;;;-140.72;100.00;52969.19;5017451;28;20040;-69
2022/10/19 01:03:40;;;;;;;8.73;4.88;;;;;;;-140.72;100.00;52971.22;5017342;28;20029;-69
2022/10/19 01:06:06;;;;;;;9.00;5.40;;;;;;;-140.72;100.00;53003.69;5019739;28;20360;-68
2022/10/19 01:08:31;;;;;;;8.30;5.07;;;;;;;-140.72;100.00;53011.81;5022011;28;20022;-68
2022/10/19 01:11:38;;;;;;;8.85;5.07;;;;;;;-140.72;100.00;53021.97;5023784;28;20083;-68
2022/10/19 01:14:45;;;;;;;5.18;4.15;;;;;;;-140.72;100.00;53024.00;5020658;28;20488;-69
2022/10/19 01:17:35;;;;;;;6.32;4.20;;;;;;;-140.72;100.00;52993.56;5027613;28;20475;-68
2022/10/19 01:20:17;;;;;;;9.45;5.60;;;;;;;-140.72;100.00;53036.16;5027035;28;20342;-68
2022/10/19 01:23:02;;;;;;;12.05;5.22;;;;;;;-140.72;100.00;53015.88;5027214;28;20033;-68
2022/10/19 01:25:57;;;;;;;7.65;4.20;;;;;;;-140.72;100.00;53013.84;5024396;28;20036;-70
2022/10/19 01:28:59;;;;;;;6.63;4.85;;;;;;;-140.72;100.00;52997.63;5020125;28;20037;-68
2022/10/19 01:31:36;;;;;;;6.30;5.03;;;;;;;-140.72;100.00;53005.72;5025028;28;20283;-68
2022/10/19 01:34:08;;;;;;;6.47;4.80;;;;;;;-140.72;100.00;53028.06;5026610;28;20061;-68
2022/10/19 01:37:11;;;;;;;5.90;4.85;;;;;;;-140.72;100.00;53001.66;5024984;28;20074;-67
2022/10/19 01:39:46;;;;;;;5.78;4.50;;;;;;;-140.72;100.00;53005.72;5023148;28;20148;-68
2022/10/19 01:42:27;;;;;;;7.75;4.60;;;;;;;-140.72;100.00;53003.69;5026512;28;20022;-68
2022/10/19 01:45:14;;;;;;;6.18;4.40;;;;;;;-140.72;100.00;52999.66;5025514;28;20028;-68
2022/10/19 01:47:58;;;;;;;6.38;4.22;;;;;;;-140.72;100.00;52955.00;5019658;28;20120;-67
2022/10/19 01:50:34;;;;;;;6.70;4.72;;;;;;;-140.72;100.00;53054.44;5023874;28;20018;-69
2022/10/19 01:53:03;;;;;;;14.43;5.65;;;;;;;-140.72;100.00;52997.63;5023554;28;20108;-69
2022/10/19 01:55:32;;;;;;;8.52;4.70;;;;;;;-140.72;100.00;53030.09;5015547;28;20046;-68
2022/10/19 01:58:02;;;;;;;5.60;4.63;;;;;;;-140.72;100.00;53015.88;5027131;28;20122;-68
2022/10/19 02:00:30;;;;;;;6.47;4.63;;;;;;;-140.72;100.00;53015.88;5028882;28;20209;-69
2022/10/19 02:02:58;;;;;;;6.85;4.13;;;;;;;-140.72;100.00;53019.94;5019927;28;20182;-69
2022/10/19 02:05:29;;;;;;;7.70;4.15;;;;;;;-140.72;100.00;53026.03;5026814;28;20018;-67
2022/10/19 02:08:01;;;;;;;7.55;4.90;;;;;;;-140.72;100.00;53011.81;5025923;28;20091;-69
2022/10/19 02:10:28;;;;;;;8.00;4.97;;;;;;;-140.72;100.00;52987.47;5029181;28;20484;-68
2022/10/19 02:12:55;;;;;;;8.60;5.35;;;;;;;-140.72;100.00;53040.22;5028458;28;20124;-70
2022/10/19 02:15:24;;;;;;;6.50;4.95;;;;;;;-140.72;100.00;53013.84;5026350;28;20056;-68
2022/10/19 02:17:55;;;;;;;7.90;4.88;;;;;;;-140.72;100.00;52973.25;5029494;28;20094;-70
2022/10/19 02:20:21;;;;;;;8.43;5.28;;;;;;;-140.72;100.00;52997.63;5024615;28;20029;-68
2022/10/19 02:22:46;;;;;;;5.75;4.82;;;;;;;-140.72;100.00;53005.72;5023899;28;20048;-69
2022/10/19 02:25:12;;;;;;;6.85;4.38;;;;;;;-140.72;100.00;52999.66;5020840;28;20025;-68
2022/10/19 02:27:42;;;;;;;6.28;4.45;;;;;;;-140.72;100.00;53048.34;5022270;28;20041;-67
2022/10/19 02:30:11;;;;;;;5.93;4.57;;;;;;;-140.72;100.00;53024.00;5013545;28;20030;-70
2022/10/19 02:32:37;;;;;;;7.60;4.90;;;;;;;-140.72;100.00;52999.66;5011384;28;20021;-68
2022/10/19 02:35:06;;;;;;;8.57;5.15;;;;;;;-140.72;100.00;53001.66;5018339;28;20350;-68
2022/10/19 02:37:32;;;;;;;5.85;4.70;;;;;;;-140.72;100.00;52987.47;5020308;28;20026;-69
2022/10/19 02:39:57;;;;;;;6.05;4.55;;;;;;;-140.72;100.00;52999.66;5014310;28;20026;-69
2022/10/19 02:42:53;;;;;;;6.72;4.70;;;;;;;-140.72;100.00;52993.56;5018062;28;20033;-68
2022/10/19 02:45:43;;;;;;;6.65;4.32;;;;;;;-140.72;100.00;52995.59;5024771;28;20021;-67
2022/10/19 02:48:20;;;;;;;7.00;4.53;;;;;;;-140.72;100.00;52975.28;5023494;28;20292;-67
2022/10/19 02:50:48;;;;;;;5.38;3.80;;;;;;;-140.72;100.00;53013.84;5019567;28;20068;-68
2022/10/19 02:53:14;;;;;;;9.10;4.40;;;;;;;-140.72;100.00;52983.41;5009374;28;20030;-70
2022/10/19 02:55:41;;;;;;;4.38;3.65;;;;;;;-140.72;100.00;52985.44;5028588;28;20310;-68
2022/10/19 02:58:07;;;;;;;9.10;4.00;;;;;;;-140.72;100.00;53036.16;5023419;28;20098;-67
2022/10/19 03:00:32;;;;;;;5.32;3.45;;;;;;;-140.72;100.00;53036.16;5020433;28;20017;-69
2022/10/19 03:02:58;;;;;;;4.32;3.42;;;;;;;-140.72;100.00;53028.06;5020066;28;20053;-67
2022/10/19 03:05:23;;;;;;;11.35;3.83;;;;;;;-140.72;100.00;53021.97;5021862;28;20053;-68
2022/10/19 03:07:49;;;;;;;5.20;3.78;;;;;;;-140.72;100.00;53003.69;5017060;28;20158;-68
2022/10/19 03:10:14;;;;;;;5.72;3.75;;;;;;;-140.72;100.00;52993.56;5019935;28;20033;-68
2022/10/19 03:12:39;;;;;;;5.50;3.60;;;;;;;-140.72;100.00;53038.19;5022113;28;20017;-70
2022/10/19 03:15:07;;;;;;;4.70;3.17;;;;;;;-140.72;100.00;53024.00;5027056;28;20026;-68
2022/10/19 03:17:32;;;;;;;4.70;3.38;;;;;;;-140.72;100.00;53011.81;5027965;28;20026;-68
2022/10/19 03:19:57;;;;;;;8.23;4.75;;;;;;;-140.72;100.00;53005.72;5027888;28;20024;-68
2022/10/19 03:22:23;;;;;;;6.05;2.55;;;;;;;-140.72;100.00;52993.56;5017578;28;20048;-69
2022/10/19 03:24:48;;;;;;;5.68;3.22;;;;;;;-140.72;100.00;53007.75;5014624;28;20388;-68
2022/10/19 03:27:13;;;;;;;5.32;3.25;;;;;;;-140.72;100.00;53011.81;5026144;28;20037;-69
2022/10/19 03:29:39;;;;;;;4.93;3.90;;;;;;;-140.72;100.00;53015.88;5028321;28;20025;-68
2022/10/19 03:32:04;;;;;;;4.90;3.13;;;;;;;-140.72;100.00;53036.16;5026858;28;20449;-67
2022/10/19 03:34:30;;;;;;;9.18;2.97;;;;;;;-140.72;100.00;52999.66;5015036;28;20041;-68
2022/10/19 03:36:58;;;;;;;3.95;2.78;;;;;;;-140.72;100.00;53034.16;5026537;28;20025;-69
2022/10/19 03:39:24;;;;;;;7.05;3.67;;;;;;;-140.72;100.00;52979.34;5026324;28;20105;-69
2022/10/19 03:41:50;;;;;;;6.75;4.18;;;;;;;-140.72;100.00;53036.16;5025128;28;20084;-68
2022/10/19 03:44:15;;;;;;;7.40;3.50;;;;;;;-140.72;100.00;53003.69;5026963;28;20025;-69
2022/10/19 03:46:40;;;;;;;5.97;3.25;;;;;;;-140.72;100.00;52983.41;5026707;28;20295;-69
2022/10/19 03:49:07;;;;;;;6.55;3.38;;;;;;;-140.72;100.00;53032.13;5027149;28;20061;-67
2022/10/19 03:51:34;;;;;;;3.85;3.20;;;;;;;-140.72;100.00;53048.34;5023523;28;20064;-68
2022/10/19 03:54:10;;;;;;;5.97;3.40;;;;;;;-140.72;100.00;53026.03;5023480;28;20048;-68
2022/10/19 03:56:36;;;;;;;4.63;3.45;;;;;;;-140.72;100.00;52995.59;5018010;28;20112;-69
2022/10/19 03:59:03;;;;;;;4.40;2.80;;;;;;;-140.72;100.00;53003.69;5020295;28;20026;-69
2022/10/19 04:01:35;;;;;;;5.05;3.20;;;;;;;-140.72;100.00;53060.53;5024248;28;20021;-69
2022/10/19 04:04:04;;;;;;;5.70;3.67;;;;;;;-140.72;100.00;53036.16;5025488;28;20017;-68
2022/10/19 04:06:34;;;;;;;4.10;2.88;;;;;;;-140.72;100.00;53017.91;5023859;28;20021;-70
2022/10/19 04:09:00;;;;;;;6.15;3.30;;;;;;;-140.72;100.00;53019.94;5018489;28;20093;-69
2022/10/19 04:11:28;;;;;;;3.70;2.33;;;;;;;-140.72;100.00;52997.63;5017185;28;20024;-68
2022/10/19 04:13:55;;;;;;;5.35;3.08;;;;;;;-140.72;100.00;53009.78;5023123;28;20118;-69
2022/10/19 04:16:22;;;;;;;5.38;3.45;;;;;;;-140.72;100.00;53038.19;5024794;28;20078;-69
2022/10/19 04:18:47;;;;;;;7.55;2.90;;;;;;;-140.72;100.00;53056.47;5021949;28;20026;-68
2022/10/19 04:21:23;;;;;;;5.32;3.38;;;;;;;-140.72;100.00;53007.75;5024786;28;20024;-68
2022/10/19 04:23:50;;;;;;;5.75;3.35;;;;;;;-140.72;100.00;53015.88;5021349;28;20033;-68
2022/10/19 04:26:16;;;;;;;6.00;3.10;;;;;;;-140.72;100.00;53015.88;5022044;28;20147;-69
2022/10/19 04:28:41;;;;;;;3.50;2.80;;;;;;;-140.72;100.00;52983.41;5019990;28;20076;-68
2022/10/19 04:31:07;;;;;;;4.53;2.88;;;;;;;-140.72;100.00;53032.13;5018020;28;20017;-68
2022/10/19 04:33:33;;;;;;;10.00;3.55;;;;;;;-140.72;100.00;53015.88;5025105;28;20557;-68
2022/10/19 04:36:04;;;;;;;4.63;2.97;;;;;;;-140.72;100.00;53003.69;5025634;28;20041;-68
2022/10/19 04:38:30;;;;;;;5.70;2.85;;;;;;;-140.72;100.00;53052.41;5020097;28;20017;-69
2022/10/19 04:41:02;;;;;;;5.05;3.30;;;;;;;-140.72;100.00;53068.66;5027179;28;20365;-67
2022/10/19 04:43:28;;;;;;;4.15;3.25;;;;;;;-140.72;100.00;52995.59;5033814;28;20025;-70
2022/10/19 04:45:53;;;;;;;4.70;2.47;;;;;;;-140.72;100.00;53026.03;5023079;28;20462;-69
2022/10/19 04:48:18;;;;;;;5.25;2.67;;;;;;;-140.72;100.00;53048.34;5029982;28;20021;-68
2022/10/19 04:50:44;;;;;;;3.67;2.35;;;;;;;-140.72;100.00;53046.31;5030919;28;20033;-69
2022/10/19 04:53:09;;;;;;;3.92;2.70;;;;;;;-140.72;100.00;52993.56;5026981;28;20029;-69
2022/10/19 04:55:39;;;;;;;3.05;2.28;;;;;;;-140.72;100.00;53013.84;5030515;28;20045;-68
2022/10/19 04:58:05;;;;;;;7.70;2.78;;;;;;;-140.72;100.00;53011.81;5027290;28;20030;-67
2022/10/19 05:00:30;;;;;;;3.35;2.50;;;;;;;-140.72;100.00;53036.16;5026288;28;20339;-69
2022/10/19 05:02:55;;;;;;;3.40;2.22;;;;;;;-140.72;100.00;53036.16;5029421;28;20875;-68
2022/10/19 05:05:21;;;;;;;4.03;2.28;;;;;;;-140.72;100.00;53024.00;5032110;28;20096;-68
2022/10/19 05:07:47;;;;;;;4.40;2.22;;;;;;;-140.72;100.00;53038.19;5026895;28;20428;-68
2022/10/19 05:10:13;;;;;;;4.70;2.50;;;;;;;-140.72;100.00;53015.88;5033536;28;20036;-68
2022/10/19 05:12:41;;;;;;;2.92;2.25;;;;;;;-140.72;100.00;53046.31;5031436;28;20021;-68
2022/10/19 05:15:07;;;;;;;3.17;2.53;;;;;;;-140.72;100.00;53011.81;5027401;28;20461;-67
2022/10/19 05:17:32;;;;;;;4.20;2.55;;;;;;;-140.72;100.00;53030.09;5029270;28;20109;-68
2022/10/19 05:19:57;;;;;;;3.92;2.45;;;;;;;-140.72;100.00;53062.56;5023753;28;20096;-67
2022/10/19 05:22:24;;;;;;;3.33;2.50;;;;;;;-140.72;100.00;53058.50;5030228;28;20052;-68
2022/10/19 05:24:49;;;;;;;6.90;2.58;;;;;;;-140.72;100.00;53019.94;5029785;28;20037;-69
2022/10/19 05:27:14;;;;;;;4.22;2.65;;;;;;;-140.72;100.00;53019.94;5029631;28;20024;-68
2022/10/19 05:29:39;;;;;;;4.82;2.70;;;;;;;-140.72;100.00;53017.91;5026790;28;20017;-69
2022/10/19 05:32:05;;;;;;;3.00;2.47;;;;;;;-140.72;100.00;53066.63;5032162;28;20022;-68
2022/10/19 05:34:30;;;;;;;5.25;3.63;;;;;;;-140.72;100.00;53019.94;5018151;28;20041;-68
2022/10/19 05:36:56;;;;;;;3.42;2.78;;;;;;;-140.72;100.00;53003.69;5024397;28;20024;-68
2022/10/19 05:39:22;;;;;;;6.05;2.72;;;;;;;-140.72;100.00;53048.34;5023502;28;20108;-68
2022/10/19 05:41:47;;;;;;;6.45;3.20;;;;;;;-140.72;100.00;53060.53;5030548;28;20481;-68
2022/10/19 05:44:18;;;;;;;3.85;2.47;;;;;;;-140.72;100.00;53013.84;5023355;28;20034;-69
2022/10/19 05:46:47;;;;;;;3.72;2.75;;;;;;;-140.72;100.00;53030.09;5027100;28;20026;-67
2022/10/19 05:49:13;;;;;;;4.05;3.08;;;;;;;-140.72;100.00;53040.22;5020834;28;20025;-69
2022/10/19 05:51:39;;;;;;;4.60;3.03;;;;;;;-140.72;100.00;53036.16;5013849;28;20377;-68
2022/10/19 05:54:09;;;;;;;3.28;2.30;;;;;;;-140.72;100.00;53015.88;5011408;28;20026;-67
2022/10/19 05:56:34;;;;;;;3.00;2.30;;;;;;;-140.72;100.00;53036.16;5014821;28;20160;-68
2022/10/19 05:59:06;;;;;;;4.05;2.70;;;;;;;-140.72;100.00;53026.03;5020116;28;20419;-67
2022/10/19 06:01:32;;;;;;;4.20;2.40;;;;;;;-140.72;100.00;53056.47;5010281;28;20017;-68
2022/10/19 06:03:59;;;;;;;3.20;2.20;;;;;;;-140.72;100.00;53060.53;5010169;28;20026;-69
2022/10/19 06:06:25;;;;;;;7.65;2.78;;;;;;;-140.72;100.00;52985.44;5023039;28;20018;-68
2022/10/19 06:08:52;;;;;;;6.60;2.67;;;;;;;-140.72;100.00;53024.00;5022767;28;20033;-68
2022/10/19 06:11:24;;;;;;;5.03;2.95;;;;;;;-140.72;100.00;53044.28;5017172;28;20029;-69
2022/10/19 06:13:52;;;;;;;5.43;2.10;;;;;;;-140.72;100.00;53046.31;5016748;28;20064;-69
2022/10/19 06:16:18;;;;;;;6.13;2.90;;;;;;;-140.72;100.00;53021.97;5022585;28;20134;-68
2022/10/19 06:18:44;;;;;;;4.20;2.33;;;;;;;-140.72;100.00;53046.31;5023148;28;20030;-70
2022/10/19 06:21:15;;;;;;;4.63;2.40;;;;;;;-140.72;100.00;53062.56;5025087;28;20091;-69
2022/10/19 06:23:41;;;;;;;6.70;2.72;;;;;;;-140.72;100.00;53032.13;5025141;28;20029;-69
2022/10/19 06:26:12;;;;;;;8.60;2.97;;;;;;;-140.72;100.00;53013.84;5030448;28;20078;-69
2022/10/19 06:28:39;;;;;;;3.75;2.78;;;;;;;-140.72;100.00;53050.38;5028715;28;20433;-68
2022/10/19 06:31:06;;;;;;;4.00;2.67;;;;;;;-140.72;100.00;52997.63;5028292;28;20140;-68
2022/10/19 06:33:31;;;;;;;2.83;1.98;;;;;;;-140.72;100.00;53052.41;5034654;28;20362;-68
2022/10/19 06:36:12;;;;;;;3.97;2.67;;;;;;;-140.72;100.00;53064.59;5030228;28;20017;-68
2022/10/19 06:38:40;;;;;;;4.18;2.97;;;;;;;-140.72;100.00;53066.63;5025964;28;20044;-69
2022/10/19 06:41:12;;;;;;;3.20;2.42;;;;;;;-140.72;100.00;53044.28;5019638;28;20038;-69
2022/10/19 06:43:38;;;;;;;4.38;2.42;;;;;;;-140.72;100.00;53026.03;5017255;28;20529;-68
2022/10/19 06:46:10;;;;;;;4.70;2.75;;;;;;;-140.72;100.00;53050.38;5022371;28;20277;-69
2022/10/19 06:48:36;;;;;;;4.50;2.95;;;;;;;-140.72;100.00;53058.50;5025785;28;20104;-69
2022/10/19 06:51:04;;;;;;;3.47;2.50;;;;;;;-140.72;100.00;53024.00;5025566;28;20390;-69
2022/10/19 06:53:30;;;;;;;6.20;2.88;;;;;;;-140.72;100.00;53009.78;5023724;28;20034;-68
2022/10/19 06:56:04;;;;;;;6.13;2.97;;;;;;;-140.72;100.00;53015.88;5025985;28;20018;-68
2022/10/19 06:58:30;;;;;;;6.38;2.40;;;;;;;-140.72;100.00;53036.16;5023429;28;20436;-69
2022/10/19 07:00:57;;;;;;;8.05;2.95;;;;;;;-140.72;100.00;53050.38;5024155;28;20146;-68
2022/10/19 07:03:23;;;;;;;5.57;2.40;;;;;;;-140.72;100.00;53009.78;5023194;28;20022;-69
2022/10/19 07:06:09;;;;;;;5.93;2.80;;;;;;;-140.72;100.00;53021.97;5023151;28;20025;-69
2022/10/19 07:08:35;;;;;;;5.95;2.92;;;;;;;-140.72;100.00;52999.66;5022993;28;20405;-68
2022/10/19 07:11:05;;;;;;;7.50;2.55;;;;;;;-140.72;100.00;52991.53;5025246;28;20029;-67
2022/10/19 07:13:30;;;;;;;5.00;2.80;;;;;;;-140.72;100.00;52987.47;5022686;28;20132;-68
2022/10/19 07:16:05;;;;;;;4.50;2.58;;;;;;;-140.72;100.00;52999.66;5024291;28;20096;-68
2022/10/19 07:18:32;;;;;;;5.35;2.67;;;;;;;-140.72;100.00;53011.81;5026363;28;20083;-67
2022/10/19 07:21:00;;;;;;;4.82;2.90;;;;;;;-140.72;100.00;53044.28;5025452;28;20014;-68
2022/10/19 07:23:27;;;;;;;3.17;2.42;;;;;;;-140.72;100.00;52991.53;5024847;28;20083;-69
2022/10/19 07:25:54;;;;;;;3.03;2.08;;;;;;;-140.72;100.00;53060.53;5021836;28;20037;-70
2022/10/19 07:28:20;;;;;;;4.05;2.75;;;;;;;-140.72;100.00;52981.38;5024535;28;20045;-69
2022/10/19 07:30:46;;;;;;;3.85;2.05;;;;;;;-140.72;100.00;53013.84;5023006;28;20402;-68
2022/10/19 07:33:12;;;;;;;4.25;2.40;;;;;;;-140.72;100.00;52991.53;5024278;28;20033;-68
2022/10/19 07:35:37;;;;;;;4.25;3.00;;;;;;;-140.72;100.00;52991.53;5025499;28;20040;-70
2022/10/19 07:38:05;;;;;;;6.05;3.10;;;;;;;-140.72;100.00;53019.94;5025528;28;20036;-68
2022/10/19 07:40:30;;;;;;;6.70;3.30;;;;;;;-140.72;100.00;52975.28;5022923;28;20067;-68
2022/10/19 07:42:56;;;;;;;4.03;2.22;;;;;;;-140.72;100.00;52971.22;5025917;28;20033;-68
2022/10/19 07:45:21;;;;;;;7.00;3.45;;;;;;;-140.72;100.00;52991.53;5020220;28;20120;-69
2022/10/19 07:47:46;;;;;;;3.35;2.05;;;;;;;-140.72;100.00;53019.94;5024864;28;20060;-69
2022/10/19 07:50:12;;;;;;;5.32;2.20;;;;;;;-140.72;100.00;52987.47;5024631;28;20087;-69
2022/10/19 07:52:37;;;;;;;4.53;2.10;;;;;;;-140.72;100.00;52985.44;5025930;28;20105;-68
2022/10/19 07:55:03;;;;;;;4.53;2.70;;;;;;;-140.72;100.00;53040.22;5021449;28;20321;-68
2022/10/19 07:57:28;;;;;;;4.72;2.45;;;;;;;-140.72;100.00;52981.38;5024400;28;20061;-68
2022/10/19 07:59:53;;;;;;;6.50;1.98;;;;;;;-140.72;100.00;52965.16;5023985;28;20029;-67
2022/10/19 08:02:19;;;;;;;3.28;2.10;;;;;;;-140.72;100.00;52936.72;5023420;28;20048;-69
2022/10/19 08:04:44;;;;;;;4.18;2.58;;;;;;;-140.72;100.00;52965.16;5023917;28;20056;-69
2022/10/19 08:07:10;;;;;;;2.78;1.98;;;;;;;-140.72;100.00;52993.56;5024340;28;20044;-69
2022/10/19 08:09:36;;;;;;;2.88;2.15;;;;;;;-140.72;100.00;53001.66;5022109;28;20024;-69
2022/10/19 08:12:03;;;;;;;4.45;2.40;;;;;;;-140.72;100.00;53001.66;5021530;28;20372;-68
2022/10/19 08:14:28;;;;;;;6.20;2.20;;;;;;;-140.72;100.00;52983.41;5024481;28;20402;-69
2022/10/19 08:16:53;;;;;;;2.88;2.05;;;;;;;-140.72;100.00;52959.06;5024126;28;20036;-69
2022/10/19 08:19:19;;;;;;;5.28;2.92;;;;;;;-140.72;100.00;52934.69;5024202;28;20048;-69
2022/10/19 08:21:45;;;;;;;2.63;1.98;;;;;;;-140.72;100.00;52946.88;5022834;28;20496;-69
2022/10/19 08:24:19;;;;;;;3.30;1.80;;;;;;;-140.72;100.00;52950.94;5018951;28;20109;-68
2022/10/19 08:26:44;;;;;;;9.73;2.63;;;;;;;-140.72;100.00;52995.59;5023446;28;20025;-69
2022/10/19 08:29:15;;;;;;;10.85;2.25;;;;;;;-140.72;100.00;52965.16;5023371;28;20449;-68
2022/10/19 08:31:43;;;;;;;2.00;1.45;;;;;;;-140.72;100.00;52955.00;5023567;28;20411;-68
2022/10/19 08:34:09;;;;;;;3.72;2.40;;;;;;;-140.72;100.00;52952.97;5022986;28;20026;-69
2022/10/19 08:36:35;;;;;;;3.33;1.98;;;;;;;-140.72;100.00;52967.16;5023892;28;20473;-69
2022/10/19 08:39:06;;;;;;;1.65;1.17;;;;;;;-140.72;100.00;52977.31;5023105;28;20029;-68
2022/10/19 08:41:36;;;;;;;2.63;1.48;;;;;;;-140.72;100.00;52983.41;5020840;28;20029;-67
2022/10/19 08:44:14;;;;;;;3.45;1.77;;;;;;;-140.72;100.00;52950.94;5022484;28;20068;-68
2022/10/19 08:46:54;;;;;;;2.30;1.38;;;;;;;-140.72;100.00;52963.13;5022374;28;20101;-68
2022/10/19 08:49:23;;;;;;;3.10;1.15;;;;;;;-140.72;100.00;52942.81;5024026;28;20450;-68
2022/10/19 08:51:56;;;;;;;4.38;1.77;;;;;;;-140.72;100.00;52950.94;5022656;28;20104;-68
2022/10/19 08:54:23;;;;;;;5.28;1.30;;;;;;;-140.72;100.00;52975.28;5021116;28;20559;-69
2022/10/19 08:57:23;;;;;;;2.42;1.17;;;;;;;-140.72;100.00;52952.97;5021113;28;20029;-69
2022/10/19 08:59:52;;;;;;;3.10;1.38;;;;;;;-140.72;100.00;52920.50;5022248;28;20337;-69
2022/10/19 09:02:45;;;;;;;2.92;1.40;;;;;;;-140.72;100.00;52914.41;5021529;28;20029;-67
2022/10/19 09:05:21;;;;;;;1.00;0.70;;;;;;;-140.72;100.00;52924.56;5020915;28;20083;-69
2022/10/19 09:07:51;;;;;;;1.98;1.13;;;;;;;-140.72;100.00;52930.66;5021925;28;20033;-70
2022/10/19 09:10:24;;;;;;;1.80;0.85;;;;;;;-140.72;100.00;52934.69;5021330;28;20502;-68
2022/10/19 09:13:01;;;;;;;3.17;0.90;;;;;;;-140.72;100.00;52924.56;5022833;28;20049;-68
2022/10/19 09:15:42;;;;;;;1.38;0.90;;;;;;;-140.72;100.00;52920.50;5021219;28;20041;-69
2022/10/19 09:18:28;;;;;;;1.48;0.90;;;;;;;-140.72;100.00;52920.50;5018716;28;20084;-69
2022/10/19 09:21:15;;;;;;;3.10;1.48;;;;;;;-140.72;100.00;52916.44;5020966;28;20038;-68
2022/10/19 09:23:43;;;;;;;2.10;1.10;;;;;;;-140.72;100.00;52914.41;5018467;28;20217;-68
2022/10/19 09:26:16;;;;;;;5.65;1.27;;;;;;;-140.72;100.00;52890.06;5024445;28;20481;-68
2022/10/19 09:28:45;;;;;;;1.30;0.70;;;;;;;-140.72;100.00;52914.41;5024902;28;20120;-68
2022/10/19 09:31:21;;;;;;;3.27;1.43;;;;;;;-140.72;100.00;52888.03;5026974;28;20033;-68
2022/10/19 09:33:54;;;;;;;0.93;0.77;;;;;;;-140.72;100.00;52894.13;5026614;28;20037;-68
2022/10/19 09:36:21;;;;;;;1.67;0.93;;;;;;;-140.72;100.00;52918.47;5028002;28;20068;-69
2022/10/19 09:38:47;;;;;;;2.55;0.98;;;;;;;-140.72;100.00;52877.88;5025012;28;20100;-68
2022/10/19 09:41:17;;;;;;;3.58;1.13;;;;;;;-140.72;100.00;52873.81;5025372;28;20352;-69
2022/10/19 09:43:49;;;;;;;3.53;0.80;;;;;;;-140.72;100.00;52886.00;5027759;28;20016;-69
2022/10/19 09:46:25;;;;;;;0.98;0.57;;;;;;;-140.72;100.00;52894.13;5027064;28;20024;-68
2022/10/19 09:48:51;;;;;;;2.28;0.65;;;;;;;-140.72;100.00;52851.50;5025599;28;20034;-69
2022/10/19 09:51:18;;;;;;;2.30;0.80;;;;;;;-140.72;100.00;52865.69;5026676;28;20037;-68
2022/10/19 09:53:54;;;;;;;1.45;0.85;;;;;;;-140.72;100.00;52904.25;5025328;28;20029;-68
2022/10/19 09:56:21;;;;;;;0.95;0.52;;;;;;;-140.72;100.00;52859.63;5025065;28;20279;-69
2022/10/19 09:58:52;;;;;;;0.77;0.40;;;;;;;-140.72;100.00;52851.50;5026855;28;20006;-68
2022/10/19 10:01:36;;;;;;;1.83;0.98;;;;;;;-140.72;100.00;52835.25;5018741;28;20100;-69
2022/10/19 10:04:09;;;;;;;2.80;0.80;;;;;;;-140.72;100.00;52829.19;5025192;28;20048;-68
2022/10/19 10:06:37;;;;;;;2.28;0.80;;;;;;;-140.72;100.00;52881.94;5027181;28;20040;-69
2022/10/19 10:09:03;;;;;;;3.42;0.85;;;;;;;-140.72;100.00;52865.69;5025945;28;20037;-68
2022/10/19 10:11:34;;;;;;;3.58;0.85;;;;;;;-140.72;100.00;52890.06;5025254;28;20031;-68
2022/10/19 10:14:13;;;;;;;2.85;0.82;;;;;;;-140.72;100.00;52883.97;5026743;28;20029;-68
2022/10/19 10:16:39;;;;;;;1.33;0.65;;;;;;;-140.72;100.00;52843.38;5026541;28;20044;-69
2022/10/19 10:19:13;;;;;;;1.40;0.68;;;;;;;-140.72;100.00;52851.50;5025996;28;20029;-69
2022/10/19 10:21:48;;;;;;;2.40;0.75;;;;;;;-140.72;100.00;52890.06;5025864;28;20029;-67
2022/10/19 10:24:15;;;;;;;0.82;0.47;;;;;;;-140.72;100.00;52835.25;5023710;28;20032;-68
2022/10/19 10:26:49;;;;;;;2.35;0.82;;;;;;;-140.72;100.00;52829.19;5024747;28;20096;-68
2022/10/19 10:29:20;;;;;;;0.95;0.47;;;;;;;-140.72;100.00;52892.09;5025297;28;20191;-67
2022/10/19 10:31:50;;;;;;;5.35;0.50;;;;;;;-140.72;100.00;52865.69;5026747;28;20441;-68
2022/10/19 10:34:38;;;;;;;1.02;0.40;;;;;;;-140.72;100.00;52835.25;5025557;28;20079;-69
2022/10/19 10:37:12;;;;;;;1.95;0.85;;;;;;;-140.72;100.00;52794.69;5024878;28;20025;-68
2022/10/19 10:39:42;;;;;;;3.05;0.95;;;;;;;-140.72;100.00;52794.69;5027815;28;20022;-67
2022/10/19 10:42:13;;;;;;;1.30;0.77;;;;;;;-140.72;100.00;52794.69;5026231;28;20018;-69
2022/10/19 10:44:45;;;;;;;2.75;1.10;;;;;;;-140.72;100.00;52784.53;5025807;28;20343;-68
2022/10/19 10:47:16;;;;;;;1.63;0.43;;;;;;;-140.72;100.00;52788.59;5022090;28;20269;-69
2022/10/19 10:49:43;;;;;;;0.65;0.30;;;;;;;-140.72;100.00;52817.00;5023514;28;20036;-69
2022/10/19 10:52:10;;;;;;;0.55;0.40;;;;;;;-140.72;100.00;52727.72;5023821;28;20068;-68
2022/10/19 10:54:36;;;;;;;1.10;0.60;;;;;;;-140.72;100.00;52743.94;5025642;28;20401;-68
2022/10/19 10:57:20;;;;;;;2.58;0.28;;;;;;;-140.72;100.00;52670.88;5021546;28;20021;-69
2022/10/19 11:00:12;;;;;;;1.90;0.43;;;;;;;-140.72;100.00;52662.78;5020738;28;20033;-68
2022/10/19 11:03:06;;;;;;;3.10;0.52;;;;;;;-140.72;100.00;52626.25;5026421;28;20083;-68
2022/10/19 11:05:37;;;;;;;1.27;0.40;;;;;;;-140.72;100.00;52577.53;5025964;28;20031;-69
2022/10/19 11:08:45;;;;;;;2.05;0.50;;;;;;;-140.72;100.00;52569.44;5025816;28;20079;-67
2022/10/19 11:11:20;;;;;;;1.23;0.40;;;;;;;-140.72;100.00;52593.78;5017236;28;20043;-68
2022/10/19 11:14:08;;;;;;;0.95;0.43;;;;;;;-140.72;0.00;52581.59;5022726;28;20063;-68
2022/10/19 11:16:40;;;;;;;1.67;0.40;;;;;;;-140.72;0.00;52508.56;5025567;28;20247;-68
2022/10/19 11:19:31;;;;;;;2.38;0.35;;;;;;;-140.72;0.00;52551.16;5022296;28;20039;-68
2022/10/19 11:22:06;;;;;;;0.73;0.32;;;;;;;-140.72;0.00;52500.44;5023883;28;20091;-69
2022/10/19 11:24:58;;;;;;;1.42;0.40;;;;;;;-140.72;0.00;52500.44;5024791;28;20077;-68